<?xml version="1.0" encoding="UTF-8" standalone="no" ?>
<gpx xmlns="http://www.topografix.com/GPX/1/1" xmlns:xsi="http://www.w3.org/2001/XMLSchema-instance" xsi:schemaLocation="http://www.topografix.com/GPX/1/1 http://www.topografix.com/GPX/1/1/gpx.xsd" version="1.1" creator="VisuGPX - https://www.visugpx.com">
  <metadata>
    <name>Vernet-Alpes_d'Huez</name>
    <desc><![CDATA[essai de tracé pour relever la topo]]></desc>
  </metadata>
  <trk>
    <name><![CDATA[Vernet-Alpes_d'Huez_1]]></name>
    <trkseg>
      <trkpt lat="45.14792" lon="6.04694">
        <ele>770</ele>
        <time>2019-02-17T09:02:31.000Z</time>
      </trkpt>
      <trkpt lat="45.14792" lon="6.04694">
        <ele>770</ele>
        <time>2019-02-17T09:02:31.000Z</time>
      </trkpt>
      <trkpt lat="45.14807" lon="6.04698">
        <ele>770</ele>
        <time>2019-02-17T09:02:31.254Z</time>
      </trkpt>
      <trkpt lat="45.14849" lon="6.0472">
        <ele>773</ele>
        <time>2019-02-17T09:02:31.967Z</time>
      </trkpt>
      <trkpt lat="45.14914" lon="6.04788">
        <ele>786</ele>
        <time>2019-02-17T09:02:33.265Z</time>
      </trkpt>
      <trkpt lat="45.14913" lon="6.04811">
        <ele>791</ele>
        <time>2019-02-17T09:02:33.520Z</time>
      </trkpt>
      <trkpt lat="45.14884" lon="6.04821">
        <ele>789</ele>
        <time>2019-02-17T09:02:33.998Z</time>
      </trkpt>
      <trkpt lat="45.14819" lon="6.04848">
        <ele>788</ele>
        <time>2019-02-17T09:02:35.082Z</time>
      </trkpt>
      <trkpt lat="45.14813" lon="6.04856">
        <ele>789</ele>
        <time>2019-02-17T09:02:35.213Z</time>
      </trkpt>
      <trkpt lat="45.14814" lon="6.04875">
        <ele>791</ele>
        <time>2019-02-17T09:02:35.432Z</time>
      </trkpt>
      <trkpt lat="45.14825" lon="6.04882">
        <ele>792</ele>
        <time>2019-02-17T09:02:35.621Z</time>
      </trkpt>
      <trkpt lat="45.14797" lon="6.0498">
        <ele>805</ele>
        <time>2019-02-17T09:02:36.812Z</time>
      </trkpt>
      <trkpt lat="45.14755" lon="6.05043">
        <ele>817</ele>
        <time>2019-02-17T09:02:37.794Z</time>
      </trkpt>
      <trkpt lat="45.14718" lon="6.05078">
        <ele>809</ele>
        <time>2019-02-17T09:02:38.513Z</time>
      </trkpt>
      <trkpt lat="45.14671" lon="6.0509">
        <ele>811</ele>
        <time>2019-02-17T09:02:39.272Z</time>
      </trkpt>
      <trkpt lat="45.14637" lon="6.05128">
        <ele>806</ele>
        <time>2019-02-17T09:02:39.964Z</time>
      </trkpt>
      <trkpt lat="45.14637" lon="6.05128">
        <ele>806</ele>
        <time>2019-02-17T09:02:39.964Z</time>
      </trkpt>
      <trkpt lat="45.14605" lon="6.05174">
        <ele>811</ele>
        <time>2019-02-17T09:02:40.708Z</time>
      </trkpt>
      <trkpt lat="45.1458" lon="6.05347">
        <ele>814</ele>
        <time>2019-02-17T09:02:42.699Z</time>
      </trkpt>
      <trkpt lat="45.14564" lon="6.05402">
        <ele>812</ele>
        <time>2019-02-17T09:02:43.378Z</time>
      </trkpt>
      <trkpt lat="45.1455" lon="6.05426">
        <ele>819</ele>
        <time>2019-02-17T09:02:43.716Z</time>
      </trkpt>
      <trkpt lat="45.14529" lon="6.05445">
        <ele>819</ele>
        <time>2019-02-17T09:02:44.123Z</time>
      </trkpt>
      <trkpt lat="45.14491" lon="6.05449">
        <ele>830</ele>
        <time>2019-02-17T09:02:44.726Z</time>
      </trkpt>
      <trkpt lat="45.14477" lon="6.05437">
        <ele>831</ele>
        <time>2019-02-17T09:02:44.994Z</time>
      </trkpt>
      <trkpt lat="45.14454" lon="6.054">
        <ele>822</ele>
        <time>2019-02-17T09:02:45.547Z</time>
      </trkpt>
      <trkpt lat="45.14441" lon="6.05306">
        <ele>810</ele>
        <time>2019-02-17T09:02:46.630Z</time>
      </trkpt>
      <trkpt lat="45.14444" lon="6.05274">
        <ele>808</ele>
        <time>2019-02-17T09:02:46.996Z</time>
      </trkpt>
      <trkpt lat="45.14461" lon="6.05214">
        <ele>797</ele>
        <time>2019-02-17T09:02:47.732Z</time>
      </trkpt>
      <trkpt lat="45.14461" lon="6.05214">
        <ele>797</ele>
        <time>2019-02-17T09:02:47.733Z</time>
      </trkpt>
      <trkpt lat="45.14464" lon="6.05183">
        <ele>795</ele>
        <time>2019-02-17T09:02:48.086Z</time>
      </trkpt>
      <trkpt lat="45.14452" lon="6.05151">
        <ele>786</ele>
        <time>2019-02-17T09:02:48.486Z</time>
      </trkpt>
      <trkpt lat="45.14452" lon="6.05151">
        <ele>786</ele>
        <time>2019-02-17T09:02:48.486Z</time>
      </trkpt>
      <trkpt lat="45.1438" lon="6.05103">
        <ele>794</ele>
        <time>2019-02-17T09:02:49.764Z</time>
      </trkpt>
      <trkpt lat="45.14311" lon="6.05034">
        <ele>791</ele>
        <time>2019-02-17T09:02:51.108Z</time>
      </trkpt>
      <trkpt lat="45.14143" lon="6.0493">
        <ele>782</ele>
        <time>2019-02-17T09:02:54.048Z</time>
      </trkpt>
      <trkpt lat="45.14099" lon="6.04909">
        <ele>758</ele>
        <time>2019-02-17T09:02:54.790Z</time>
      </trkpt>
      <trkpt lat="45.14022" lon="6.04893">
        <ele>781</ele>
        <time>2019-02-17T09:02:56.050Z</time>
      </trkpt>
      <trkpt lat="45.1393" lon="6.04892">
        <ele>789</ele>
        <time>2019-02-17T09:02:57.512Z</time>
      </trkpt>
      <trkpt lat="45.1393" lon="6.04892">
        <ele>789</ele>
        <time>2019-02-17T09:02:57.512Z</time>
      </trkpt>
      <trkpt lat="45.13825" lon="6.04844">
        <ele>790</ele>
        <time>2019-02-17T09:02:59.290Z</time>
      </trkpt>
      <trkpt lat="45.13793" lon="6.04843">
        <ele>792</ele>
        <time>2019-02-17T09:02:59.797Z</time>
      </trkpt>
      <trkpt lat="45.13737" lon="6.04868">
        <ele>784</ele>
        <time>2019-02-17T09:03:00.732Z</time>
      </trkpt>
      <trkpt lat="45.13691" lon="6.04905">
        <ele>784</ele>
        <time>2019-02-17T09:03:01.589Z</time>
      </trkpt>
      <trkpt lat="45.13691" lon="6.04905">
        <ele>784</ele>
        <time>2019-02-17T09:03:01.589Z</time>
      </trkpt>
      <trkpt lat="45.1364" lon="6.04946">
        <ele>790</ele>
        <time>2019-02-17T09:03:02.526Z</time>
      </trkpt>
      <trkpt lat="45.13599" lon="6.04953">
        <ele>788</ele>
        <time>2019-02-17T09:03:03.184Z</time>
      </trkpt>
      <trkpt lat="45.13027" lon="6.04804">
        <ele>793</ele>
        <time>2019-02-17T09:03:12.504Z</time>
      </trkpt>
      <trkpt lat="45.12961" lon="6.04784">
        <ele>796</ele>
        <time>2019-02-17T09:03:13.595Z</time>
      </trkpt>
      <trkpt lat="45.12938" lon="6.04766">
        <ele>794</ele>
        <time>2019-02-17T09:03:14.011Z</time>
      </trkpt>
      <trkpt lat="45.12828" lon="6.04595">
        <ele>795</ele>
        <time>2019-02-17T09:03:16.635Z</time>
      </trkpt>
      <trkpt lat="45.12828" lon="6.04595">
        <ele>795</ele>
        <time>2019-02-17T09:03:16.635Z</time>
      </trkpt>
      <trkpt lat="45.12803" lon="6.04546">
        <ele>787</ele>
        <time>2019-02-17T09:03:17.314Z</time>
      </trkpt>
      <trkpt lat="45.12959" lon="6.04293">
        <ele>758</ele>
        <time>2019-02-17T09:03:21.105Z</time>
      </trkpt>
      <trkpt lat="45.12959" lon="6.04293">
        <ele>758</ele>
        <time>2019-02-17T09:03:21.105Z</time>
      </trkpt>
      <trkpt lat="45.12959" lon="6.04293">
        <ele>758</ele>
        <time>2019-02-17T09:03:21.105Z</time>
      </trkpt>
      <trkpt lat="45.13067" lon="6.04117">
        <ele>767</ele>
        <time>2019-02-17T09:03:23.748Z</time>
      </trkpt>
      <trkpt lat="45.13075" lon="6.04088">
        <ele>772</ele>
        <time>2019-02-17T09:03:24.106Z</time>
      </trkpt>
      <trkpt lat="45.13075" lon="6.04088">
        <ele>772</ele>
        <time>2019-02-17T09:03:24.106Z</time>
      </trkpt>
      <trkpt lat="45.13059" lon="6.04076">
        <ele>772</ele>
        <time>2019-02-17T09:03:24.397Z</time>
      </trkpt>
      <trkpt lat="45.1305" lon="6.04084">
        <ele>766</ele>
        <time>2019-02-17T09:03:24.569Z</time>
      </trkpt>
      <trkpt lat="45.13027" lon="6.04147">
        <ele>763</ele>
        <time>2019-02-17T09:03:25.365Z</time>
      </trkpt>
      <trkpt lat="45.12826" lon="6.04403">
        <ele>752</ele>
        <time>2019-02-17T09:03:29.698Z</time>
      </trkpt>
      <trkpt lat="45.1281" lon="6.04416">
        <ele>753</ele>
        <time>2019-02-17T09:03:30.008Z</time>
      </trkpt>
      <trkpt lat="45.12798" lon="6.04404">
        <ele>753</ele>
        <time>2019-02-17T09:03:30.236Z</time>
      </trkpt>
      <trkpt lat="45.12806" lon="6.04377">
        <ele>751</ele>
        <time>2019-02-17T09:03:30.568Z</time>
      </trkpt>
      <trkpt lat="45.12828" lon="6.0436">
        <ele>749</ele>
        <time>2019-02-17T09:03:30.966Z</time>
      </trkpt>
      <trkpt lat="45.12828" lon="6.0436">
        <ele>749</ele>
        <time>2019-02-17T09:03:30.966Z</time>
      </trkpt>
      <trkpt lat="45.12835" lon="6.04355">
        <ele>750</ele>
        <time>2019-02-17T09:03:31.095Z</time>
      </trkpt>
      <trkpt lat="45.1292" lon="6.0418">
        <ele>742</ele>
        <time>2019-02-17T09:03:33.495Z</time>
      </trkpt>
      <trkpt lat="45.12922" lon="6.04144">
        <ele>741</ele>
        <time>2019-02-17T09:03:33.903Z</time>
      </trkpt>
      <trkpt lat="45.12904" lon="6.0409">
        <ele>733</ele>
        <time>2019-02-17T09:03:34.582Z</time>
      </trkpt>
      <trkpt lat="45.12892" lon="6.04062">
        <ele>733</ele>
        <time>2019-02-17T09:03:34.945Z</time>
      </trkpt>
      <trkpt lat="45.12891" lon="6.04061">
        <ele>733</ele>
        <time>2019-02-17T09:03:34.970Z</time>
      </trkpt>
      <trkpt lat="45.12883" lon="6.04043">
        <ele>733</ele>
        <time>2019-02-17T09:03:35.209Z</time>
      </trkpt>
      <trkpt lat="45.12878" lon="6.0403">
        <ele>733</ele>
        <time>2019-02-17T09:03:35.373Z</time>
      </trkpt>
      <trkpt lat="45.12873" lon="6.0402">
        <ele>733</ele>
        <time>2019-02-17T09:03:35.512Z</time>
      </trkpt>
      <trkpt lat="45.12851" lon="6.03971">
        <ele>733</ele>
        <time>2019-02-17T09:03:36.172Z</time>
      </trkpt>
      <trkpt lat="45.12823" lon="6.03913">
        <ele>729</ele>
        <time>2019-02-17T09:03:36.960Z</time>
      </trkpt>
      <trkpt lat="45.12812" lon="6.03889">
        <ele>729</ele>
        <time>2019-02-17T09:03:37.283Z</time>
      </trkpt>
      <trkpt lat="45.1281" lon="6.03879">
        <ele>729</ele>
        <time>2019-02-17T09:03:37.403Z</time>
      </trkpt>
      <trkpt lat="45.1281" lon="6.03879">
        <ele>729</ele>
        <time>2019-02-17T09:03:37.403Z</time>
      </trkpt>
      <trkpt lat="45.12796" lon="6.03842">
        <ele>729</ele>
        <time>2019-02-17T09:03:37.878Z</time>
      </trkpt>
      <trkpt lat="45.12796" lon="6.03842">
        <ele>729</ele>
        <time>2019-02-17T09:03:37.878Z</time>
      </trkpt>
      <trkpt lat="45.12785" lon="6.03814">
        <ele>731</ele>
        <time>2019-02-17T09:03:38.241Z</time>
      </trkpt>
      <trkpt lat="45.12785" lon="6.03814">
        <ele>731</ele>
        <time>2019-02-17T09:03:38.241Z</time>
      </trkpt>
      <trkpt lat="45.12793" lon="6.0375">
        <ele>733</ele>
        <time>2019-02-17T09:03:38.973Z</time>
      </trkpt>
      <trkpt lat="45.12738" lon="6.0361">
        <ele>729</ele>
        <time>2019-02-17T09:03:40.779Z</time>
      </trkpt>
      <trkpt lat="45.12696" lon="6.03502">
        <ele>728</ele>
        <time>2019-02-17T09:03:42.180Z</time>
      </trkpt>
      <trkpt lat="45.12669" lon="6.03437">
        <ele>728</ele>
        <time>2019-02-17T09:03:43.030Z</time>
      </trkpt>
      <trkpt lat="45.12665" lon="6.03429">
        <ele>725</ele>
        <time>2019-02-17T09:03:43.139Z</time>
      </trkpt>
      <trkpt lat="45.12578" lon="6.03213">
        <ele>723</ele>
        <time>2019-02-17T09:03:45.953Z</time>
      </trkpt>
      <trkpt lat="45.12475" lon="6.02963">
        <ele>722</ele>
        <time>2019-02-17T09:03:49.228Z</time>
      </trkpt>
      <trkpt lat="45.12415" lon="6.02814">
        <ele>722</ele>
        <time>2019-02-17T09:03:51.171Z</time>
      </trkpt>
      <trkpt lat="45.12415" lon="6.02814">
        <ele>722</ele>
        <time>2019-02-17T09:03:51.171Z</time>
      </trkpt>
      <trkpt lat="45.1239" lon="6.02752">
        <ele>722</ele>
        <time>2019-02-17T09:03:51.977Z</time>
      </trkpt>
      <trkpt lat="45.12381" lon="6.02729">
        <ele>723</ele>
        <time>2019-02-17T09:03:52.275Z</time>
      </trkpt>
      <trkpt lat="45.12366" lon="6.02695">
        <ele>722</ele>
        <time>2019-02-17T09:03:52.737Z</time>
      </trkpt>
      <trkpt lat="45.12331" lon="6.02605">
        <ele>720</ele>
        <time>2019-02-17T09:03:53.890Z</time>
      </trkpt>
      <trkpt lat="45.12255" lon="6.02411">
        <ele>721</ele>
        <time>2019-02-17T09:03:56.398Z</time>
      </trkpt>
      <trkpt lat="45.1223" lon="6.0232">
        <ele>725</ele>
        <time>2019-02-17T09:03:57.508Z</time>
      </trkpt>
      <trkpt lat="45.12204" lon="6.02283">
        <ele>726</ele>
        <time>2019-02-17T09:03:58.108Z</time>
      </trkpt>
      <trkpt lat="45.12198" lon="6.0228">
        <ele>726</ele>
        <time>2019-02-17T09:03:58.207Z</time>
      </trkpt>
      <trkpt lat="45.12149" lon="6.0226">
        <ele>719</ele>
        <time>2019-02-17T09:03:59.021Z</time>
      </trkpt>
      <trkpt lat="45.12128" lon="6.02241">
        <ele>720</ele>
        <time>2019-02-17T09:03:59.411Z</time>
      </trkpt>
      <trkpt lat="45.12109" lon="6.02207">
        <ele>720</ele>
        <time>2019-02-17T09:03:59.908Z</time>
      </trkpt>
      <trkpt lat="45.12085" lon="6.02102">
        <ele>725</ele>
        <time>2019-02-17T09:04:01.156Z</time>
      </trkpt>
      <trkpt lat="45.12066" lon="6.02053">
        <ele>720</ele>
        <time>2019-02-17T09:04:01.784Z</time>
      </trkpt>
      <trkpt lat="45.1205" lon="6.02014">
        <ele>719</ele>
        <time>2019-02-17T09:04:02.306Z</time>
      </trkpt>
      <trkpt lat="45.12046" lon="6.02008">
        <ele>719</ele>
        <time>2019-02-17T09:04:02.390Z</time>
      </trkpt>
      <trkpt lat="45.11996" lon="6.01882">
        <ele>714</ele>
        <time>2019-02-17T09:04:04.024Z</time>
      </trkpt>
      <trkpt lat="45.11996" lon="6.01882">
        <ele>714</ele>
        <time>2019-02-17T09:04:04.024Z</time>
      </trkpt>
      <trkpt lat="45.11933" lon="6.0176">
        <ele>714</ele>
        <time>2019-02-17T09:04:05.735Z</time>
      </trkpt>
      <trkpt lat="45.11717" lon="6.01493">
        <ele>713</ele>
        <time>2019-02-17T09:04:10.329Z</time>
      </trkpt>
      <trkpt lat="45.11596" lon="6.01357">
        <ele>711</ele>
        <time>2019-02-17T09:04:12.810Z</time>
      </trkpt>
      <trkpt lat="45.11594" lon="6.01356">
        <ele>711</ele>
        <time>2019-02-17T09:04:12.842Z</time>
      </trkpt>
      <trkpt lat="45.11559" lon="6.01317">
        <ele>712</ele>
        <time>2019-02-17T09:04:13.555Z</time>
      </trkpt>
      <trkpt lat="45.11551" lon="6.01309">
        <ele>712</ele>
        <time>2019-02-17T09:04:13.706Z</time>
      </trkpt>
      <trkpt lat="45.11537" lon="6.01294">
        <ele>713</ele>
        <time>2019-02-17T09:04:13.994Z</time>
      </trkpt>
      <trkpt lat="45.11512" lon="6.01249">
        <ele>715</ele>
        <time>2019-02-17T09:04:14.645Z</time>
      </trkpt>
      <trkpt lat="45.11495" lon="6.01187">
        <ele>714</ele>
        <time>2019-02-17T09:04:15.403Z</time>
      </trkpt>
      <trkpt lat="45.11457" lon="6.00813">
        <ele>714</ele>
        <time>2019-02-17T09:04:19.671Z</time>
      </trkpt>
      <trkpt lat="45.11455" lon="6.00796">
        <ele>714</ele>
        <time>2019-02-17T09:04:19.867Z</time>
      </trkpt>
      <trkpt lat="45.11455" lon="6.00796">
        <ele>714</ele>
        <time>2019-02-17T09:04:19.867Z</time>
      </trkpt>
      <trkpt lat="45.11441" lon="6.00647">
        <ele>712</ele>
        <time>2019-02-17T09:04:21.570Z</time>
      </trkpt>
      <trkpt lat="45.11433" lon="6.00588">
        <ele>712</ele>
        <time>2019-02-17T09:04:22.244Z</time>
      </trkpt>
      <trkpt lat="45.11426" lon="6.00574">
        <ele>712</ele>
        <time>2019-02-17T09:04:22.442Z</time>
      </trkpt>
      <trkpt lat="45.11426" lon="6.00574">
        <ele>712</ele>
        <time>2019-02-17T09:04:22.442Z</time>
      </trkpt>
      <trkpt lat="45.11419" lon="6.00561">
        <ele>713</ele>
        <time>2019-02-17T09:04:22.621Z</time>
      </trkpt>
      <trkpt lat="45.11367" lon="6.00595">
        <ele>717</ele>
        <time>2019-02-17T09:04:23.547Z</time>
      </trkpt>
      <trkpt lat="45.11242" lon="6.00624">
        <ele>714</ele>
        <time>2019-02-17T09:04:25.569Z</time>
      </trkpt>
      <trkpt lat="45.11146" lon="6.00646">
        <ele>714</ele>
        <time>2019-02-17T09:04:27.138Z</time>
      </trkpt>
      <trkpt lat="45.11052" lon="6.00668">
        <ele>712</ele>
        <time>2019-02-17T09:04:28.654Z</time>
      </trkpt>
      <trkpt lat="45.10861" lon="6.00714">
        <ele>711</ele>
        <time>2019-02-17T09:04:31.760Z</time>
      </trkpt>
      <trkpt lat="45.10669" lon="6.00758">
        <ele>711</ele>
        <time>2019-02-17T09:04:34.880Z</time>
      </trkpt>
      <trkpt lat="45.10481" lon="6.00804">
        <ele>713</ele>
        <time>2019-02-17T09:04:37.941Z</time>
      </trkpt>
      <trkpt lat="45.10292" lon="6.00848">
        <ele>712</ele>
        <time>2019-02-17T09:04:41.018Z</time>
      </trkpt>
      <trkpt lat="45.10099" lon="6.00893">
        <ele>712</ele>
        <time>2019-02-17T09:04:44.147Z</time>
      </trkpt>
      <trkpt lat="45.09987" lon="6.00919">
        <ele>713</ele>
        <time>2019-02-17T09:04:45.960Z</time>
      </trkpt>
      <trkpt lat="45.09911" lon="6.00938">
        <ele>714</ele>
        <time>2019-02-17T09:04:47.207Z</time>
      </trkpt>
      <trkpt lat="45.09813" lon="6.0096">
        <ele>713</ele>
        <time>2019-02-17T09:04:48.792Z</time>
      </trkpt>
      <trkpt lat="45.09757" lon="6.00957">
        <ele>714</ele>
        <time>2019-02-17T09:04:49.687Z</time>
      </trkpt>
      <trkpt lat="45.09722" lon="6.0098">
        <ele>712</ele>
        <time>2019-02-17T09:04:50.309Z</time>
      </trkpt>
      <trkpt lat="45.09529" lon="6.01028">
        <ele>713</ele>
        <time>2019-02-17T09:04:53.453Z</time>
      </trkpt>
      <trkpt lat="45.09399" lon="6.01058">
        <ele>713</ele>
        <time>2019-02-17T09:04:55.563Z</time>
      </trkpt>
      <trkpt lat="45.09339" lon="6.01072">
        <ele>712</ele>
        <time>2019-02-17T09:04:56.531Z</time>
      </trkpt>
      <trkpt lat="45.09241" lon="6.01096">
        <ele>714</ele>
        <time>2019-02-17T09:04:58.136Z</time>
      </trkpt>
      <trkpt lat="45.09235" lon="6.01097">
        <ele>714</ele>
        <time>2019-02-17T09:04:58.223Z</time>
      </trkpt>
      <trkpt lat="45.09129" lon="6.01122">
        <ele>714</ele>
        <time>2019-02-17T09:04:59.958Z</time>
      </trkpt>
      <trkpt lat="45.09104" lon="6.01128">
        <ele>714</ele>
        <time>2019-02-17T09:05:00.351Z</time>
      </trkpt>
      <trkpt lat="45.09073" lon="6.01136">
        <ele>714</ele>
        <time>2019-02-17T09:05:00.857Z</time>
      </trkpt>
      <trkpt lat="45.09037" lon="6.01155">
        <ele>714</ele>
        <time>2019-02-17T09:05:01.473Z</time>
      </trkpt>
      <trkpt lat="45.08968" lon="6.0116">
        <ele>714</ele>
        <time>2019-02-17T09:05:02.584Z</time>
      </trkpt>
      <trkpt lat="45.08896" lon="6.01176">
        <ele>714</ele>
        <time>2019-02-17T09:05:03.751Z</time>
      </trkpt>
      <trkpt lat="45.08835" lon="6.01191">
        <ele>714</ele>
        <time>2019-02-17T09:05:04.755Z</time>
      </trkpt>
      <trkpt lat="45.08456" lon="6.01282">
        <ele>714</ele>
        <time>2019-02-17T09:05:10.903Z</time>
      </trkpt>
      <trkpt lat="45.08037" lon="6.01381">
        <ele>714</ele>
        <time>2019-02-17T09:05:17.721Z</time>
      </trkpt>
      <trkpt lat="45.07633" lon="6.01479">
        <ele>723</ele>
        <time>2019-02-17T09:05:24.292Z</time>
      </trkpt>
      <trkpt lat="45.07623" lon="6.01484">
        <ele>723</ele>
        <time>2019-02-17T09:05:24.456Z</time>
      </trkpt>
      <trkpt lat="45.07623" lon="6.01484">
        <ele>723</ele>
        <time>2019-02-17T09:05:24.456Z</time>
      </trkpt>
      <trkpt lat="45.0752" lon="6.0156">
        <ele>727</ele>
        <time>2019-02-17T09:05:26.326Z</time>
      </trkpt>
      <trkpt lat="45.07425" lon="6.01633">
        <ele>728</ele>
        <time>2019-02-17T09:05:28.050Z</time>
      </trkpt>
      <trkpt lat="45.07398" lon="6.01654">
        <ele>728</ele>
        <time>2019-02-17T09:05:28.556Z</time>
      </trkpt>
      <trkpt lat="45.07225" lon="6.0179">
        <ele>728</ele>
        <time>2019-02-17T09:05:31.723Z</time>
      </trkpt>
      <trkpt lat="45.07216" lon="6.01797">
        <ele>729</ele>
        <time>2019-02-17T09:05:31.879Z</time>
      </trkpt>
      <trkpt lat="45.07216" lon="6.01797">
        <ele>729</ele>
        <time>2019-02-17T09:05:31.879Z</time>
      </trkpt>
      <trkpt lat="45.07115" lon="6.01881">
        <ele>746</ele>
        <time>2019-02-17T09:05:33.756Z</time>
      </trkpt>
      <trkpt lat="45.06962" lon="6.0199">
        <ele>725</ele>
        <time>2019-02-17T09:05:36.500Z</time>
      </trkpt>
      <trkpt lat="45.06707" lon="6.02188">
        <ele>716</ele>
        <time>2019-02-17T09:05:41.174Z</time>
      </trkpt>
      <trkpt lat="45.06698" lon="6.02195">
        <ele>716</ele>
        <time>2019-02-17T09:05:41.333Z</time>
      </trkpt>
      <trkpt lat="45.06689" lon="6.02202">
        <ele>716</ele>
        <time>2019-02-17T09:05:41.499Z</time>
      </trkpt>
      <trkpt lat="45.06585" lon="6.02278">
        <ele>720</ele>
        <time>2019-02-17T09:05:43.377Z</time>
      </trkpt>
      <trkpt lat="45.06479" lon="6.02361">
        <ele>718</ele>
        <time>2019-02-17T09:05:45.315Z</time>
      </trkpt>
      <trkpt lat="45.06435" lon="6.02396">
        <ele>719</ele>
        <time>2019-02-17T09:05:46.123Z</time>
      </trkpt>
      <trkpt lat="45.06397" lon="6.02425">
        <ele>719</ele>
        <time>2019-02-17T09:05:46.819Z</time>
      </trkpt>
      <trkpt lat="45.06367" lon="6.02438">
        <ele>719</ele>
        <time>2019-02-17T09:05:47.322Z</time>
      </trkpt>
      <trkpt lat="45.06356" lon="6.02436">
        <ele>719</ele>
        <time>2019-02-17T09:05:47.504Z</time>
      </trkpt>
      <trkpt lat="45.06345" lon="6.02445">
        <ele>719</ele>
        <time>2019-02-17T09:05:47.712Z</time>
      </trkpt>
      <trkpt lat="45.0634" lon="6.02463">
        <ele>719</ele>
        <time>2019-02-17T09:05:47.933Z</time>
      </trkpt>
      <trkpt lat="45.06319" lon="6.0248">
        <ele>718</ele>
        <time>2019-02-17T09:05:48.321Z</time>
      </trkpt>
      <trkpt lat="45.06307" lon="6.02491">
        <ele>718</ele>
        <time>2019-02-17T09:05:48.535Z</time>
      </trkpt>
      <trkpt lat="45.063" lon="6.02495">
        <ele>718</ele>
        <time>2019-02-17T09:05:48.667Z</time>
      </trkpt>
      <trkpt lat="45.063" lon="6.02495">
        <ele>718</ele>
        <time>2019-02-17T09:05:48.667Z</time>
      </trkpt>
      <trkpt lat="45.06264" lon="6.02522">
        <ele>719</ele>
        <time>2019-02-17T09:05:49.316Z</time>
      </trkpt>
      <trkpt lat="45.0623" lon="6.02549">
        <ele>718</ele>
        <time>2019-02-17T09:05:49.937Z</time>
      </trkpt>
      <trkpt lat="45.06161" lon="6.02597">
        <ele>715</ele>
        <time>2019-02-17T09:05:51.176Z</time>
      </trkpt>
      <trkpt lat="45.06161" lon="6.02598">
        <ele>715</ele>
        <time>2019-02-17T09:05:51.186Z</time>
      </trkpt>
      <trkpt lat="45.06114" lon="6.02635">
        <ele>716</ele>
        <time>2019-02-17T09:05:52.044Z</time>
      </trkpt>
      <trkpt lat="45.06114" lon="6.02635">
        <ele>716</ele>
        <time>2019-02-17T09:05:52.044Z</time>
      </trkpt>
      <trkpt lat="45.06004" lon="6.02721">
        <ele>719</ele>
        <time>2019-02-17T09:05:54.057Z</time>
      </trkpt>
      <trkpt lat="45.05978" lon="6.02742">
        <ele>719</ele>
        <time>2019-02-17T09:05:54.540Z</time>
      </trkpt>
      <trkpt lat="45.05944" lon="6.02767">
        <ele>719</ele>
        <time>2019-02-17T09:05:55.155Z</time>
      </trkpt>
      <trkpt lat="45.05872" lon="6.02821">
        <ele>721</ele>
        <time>2019-02-17T09:05:56.447Z</time>
      </trkpt>
      <trkpt lat="45.05872" lon="6.02821">
        <ele>721</ele>
        <time>2019-02-17T09:05:56.447Z</time>
      </trkpt>
      <trkpt lat="45.0581" lon="6.02867">
        <ele>722</ele>
        <time>2019-02-17T09:05:57.576Z</time>
      </trkpt>
      <trkpt lat="45.0581" lon="6.02867">
        <ele>722</ele>
        <time>2019-02-17T09:05:57.576Z</time>
      </trkpt>
      <trkpt lat="45.0581" lon="6.02867">
        <ele>722</ele>
        <time>2019-02-17T09:05:57.576Z</time>
      </trkpt>
      <trkpt lat="45.0581" lon="6.02867">
        <ele>722</ele>
        <time>2019-02-17T09:05:57.576Z</time>
      </trkpt>
      <trkpt lat="45.05767" lon="6.029">
        <ele>722</ele>
        <time>2019-02-17T09:05:58.357Z</time>
      </trkpt>
      <trkpt lat="45.05767" lon="6.029">
        <ele>722</ele>
        <time>2019-02-17T09:05:58.357Z</time>
      </trkpt>
      <trkpt lat="45.05738" lon="6.02919">
        <ele>721</ele>
        <time>2019-02-17T09:05:58.868Z</time>
      </trkpt>
      <trkpt lat="45.05724" lon="6.02927">
        <ele>721</ele>
        <time>2019-02-17T09:05:59.117Z</time>
      </trkpt>
      <trkpt lat="45.05724" lon="6.02927">
        <ele>721</ele>
        <time>2019-02-17T09:05:59.117Z</time>
      </trkpt>
      <trkpt lat="45.05684" lon="6.02946">
        <ele>722</ele>
        <time>2019-02-17T09:05:59.798Z</time>
      </trkpt>
      <trkpt lat="45.05627" lon="6.02959">
        <ele>722</ele>
        <time>2019-02-17T09:06:00.713Z</time>
      </trkpt>
      <trkpt lat="45.05627" lon="6.02959">
        <ele>722</ele>
        <time>2019-02-17T09:06:00.713Z</time>
      </trkpt>
      <trkpt lat="45.05595" lon="6.02964">
        <ele>722</ele>
        <time>2019-02-17T09:06:01.232Z</time>
      </trkpt>
      <trkpt lat="45.05564" lon="6.0297">
        <ele>723</ele>
        <time>2019-02-17T09:06:01.736Z</time>
      </trkpt>
      <trkpt lat="45.05552" lon="6.02973">
        <ele>724</ele>
        <time>2019-02-17T09:06:01.936Z</time>
      </trkpt>
      <trkpt lat="45.05531" lon="6.02977">
        <ele>724</ele>
        <time>2019-02-17T09:06:02.266Z</time>
      </trkpt>
      <trkpt lat="45.05506" lon="6.02991">
        <ele>725</ele>
        <time>2019-02-17T09:06:02.702Z</time>
      </trkpt>
      <trkpt lat="45.05497" lon="6.03041">
        <ele>726</ele>
        <time>2019-02-17T09:06:03.286Z</time>
      </trkpt>
      <trkpt lat="45.05497" lon="6.03041">
        <ele>726</ele>
        <time>2019-02-17T09:06:03.287Z</time>
      </trkpt>
      <trkpt lat="45.05495" lon="6.03054">
        <ele>726</ele>
        <time>2019-02-17T09:06:03.443Z</time>
      </trkpt>
      <trkpt lat="45.05482" lon="6.03147">
        <ele>723</ele>
        <time>2019-02-17T09:06:04.506Z</time>
      </trkpt>
      <trkpt lat="45.05475" lon="6.03183">
        <ele>721</ele>
        <time>2019-02-17T09:06:04.934Z</time>
      </trkpt>
      <trkpt lat="45.05475" lon="6.03191">
        <ele>721</ele>
        <time>2019-02-17T09:06:05.019Z</time>
      </trkpt>
      <trkpt lat="45.05489" lon="6.03241">
        <ele>720</ele>
        <time>2019-02-17T09:06:05.627Z</time>
      </trkpt>
      <trkpt lat="45.05512" lon="6.03274">
        <ele>720</ele>
        <time>2019-02-17T09:06:06.159Z</time>
      </trkpt>
      <trkpt lat="45.0559" lon="6.03368">
        <ele>718</ele>
        <time>2019-02-17T09:06:07.798Z</time>
      </trkpt>
      <trkpt lat="45.05605" lon="6.03384">
        <ele>718</ele>
        <time>2019-02-17T09:06:08.093Z</time>
      </trkpt>
      <trkpt lat="45.05619" lon="6.03399">
        <ele>718</ele>
        <time>2019-02-17T09:06:08.370Z</time>
      </trkpt>
      <trkpt lat="45.05625" lon="6.03406">
        <ele>718</ele>
        <time>2019-02-17T09:06:08.493Z</time>
      </trkpt>
      <trkpt lat="45.05634" lon="6.03416">
        <ele>718</ele>
        <time>2019-02-17T09:06:08.679Z</time>
      </trkpt>
      <trkpt lat="45.05648" lon="6.03432">
        <ele>718</ele>
        <time>2019-02-17T09:06:08.974Z</time>
      </trkpt>
      <trkpt lat="45.05685" lon="6.03472">
        <ele>719</ele>
        <time>2019-02-17T09:06:09.715Z</time>
      </trkpt>
      <trkpt lat="45.05767" lon="6.03567">
        <ele>720</ele>
        <time>2019-02-17T09:06:11.417Z</time>
      </trkpt>
      <trkpt lat="45.05816" lon="6.03626">
        <ele>721</ele>
        <time>2019-02-17T09:06:12.446Z</time>
      </trkpt>
      <trkpt lat="45.05837" lon="6.03657">
        <ele>721</ele>
        <time>2019-02-17T09:06:12.937Z</time>
      </trkpt>
      <trkpt lat="45.05843" lon="6.03667">
        <ele>721</ele>
        <time>2019-02-17T09:06:13.083Z</time>
      </trkpt>
      <trkpt lat="45.05843" lon="6.03667">
        <ele>721</ele>
        <time>2019-02-17T09:06:13.083Z</time>
      </trkpt>
      <trkpt lat="45.05877" lon="6.03719">
        <ele>723</ele>
        <time>2019-02-17T09:06:13.878Z</time>
      </trkpt>
      <trkpt lat="45.05888" lon="6.03735">
        <ele>723</ele>
        <time>2019-02-17T09:06:14.139Z</time>
      </trkpt>
      <trkpt lat="45.05891" lon="6.03739">
        <ele>723</ele>
        <time>2019-02-17T09:06:14.206Z</time>
      </trkpt>
      <trkpt lat="45.05905" lon="6.03775">
        <ele>723</ele>
        <time>2019-02-17T09:06:14.666Z</time>
      </trkpt>
      <trkpt lat="45.05912" lon="6.03802">
        <ele>722</ele>
        <time>2019-02-17T09:06:14.998Z</time>
      </trkpt>
      <trkpt lat="45.05928" lon="6.03807">
        <ele>722</ele>
        <time>2019-02-17T09:06:15.262Z</time>
      </trkpt>
      <trkpt lat="45.05941" lon="6.03792">
        <ele>722</ele>
        <time>2019-02-17T09:06:15.529Z</time>
      </trkpt>
      <trkpt lat="45.05963" lon="6.03781">
        <ele>722</ele>
        <time>2019-02-17T09:06:15.894Z</time>
      </trkpt>
      <trkpt lat="45.05972" lon="6.03779">
        <ele>722</ele>
        <time>2019-02-17T09:06:16.052Z</time>
      </trkpt>
      <trkpt lat="45.06016" lon="6.03772">
        <ele>721</ele>
        <time>2019-02-17T09:06:16.753Z</time>
      </trkpt>
      <trkpt lat="45.06022" lon="6.03771">
        <ele>721</ele>
        <time>2019-02-17T09:06:16.848Z</time>
      </trkpt>
      <trkpt lat="45.06032" lon="6.03768">
        <ele>721</ele>
        <time>2019-02-17T09:06:17.014Z</time>
      </trkpt>
      <trkpt lat="45.06032" lon="6.03768">
        <ele>721</ele>
        <time>2019-02-17T09:06:17.014Z</time>
      </trkpt>
      <trkpt lat="45.06159" lon="6.03736">
        <ele>718</ele>
        <time>2019-02-17T09:06:19.094Z</time>
      </trkpt>
      <trkpt lat="45.06231" lon="6.03698">
        <ele>719</ele>
        <time>2019-02-17T09:06:20.322Z</time>
      </trkpt>
      <trkpt lat="45.06255" lon="6.03697">
        <ele>719</ele>
        <time>2019-02-17T09:06:20.709Z</time>
      </trkpt>
      <trkpt lat="45.06286" lon="6.03709">
        <ele>719</ele>
        <time>2019-02-17T09:06:21.219Z</time>
      </trkpt>
      <trkpt lat="45.06369" lon="6.0382">
        <ele>722</ele>
        <time>2019-02-17T09:06:23.045Z</time>
      </trkpt>
      <trkpt lat="45.06369" lon="6.0382">
        <ele>722</ele>
        <time>2019-02-17T09:06:23.045Z</time>
      </trkpt>
      <trkpt lat="45.06419" lon="6.03892">
        <ele>724</ele>
        <time>2019-02-17T09:06:24.186Z</time>
      </trkpt>
      <trkpt lat="45.06502" lon="6.04004">
        <ele>732</ele>
        <time>2019-02-17T09:06:26.027Z</time>
      </trkpt>
      <trkpt lat="45.06502" lon="6.04004">
        <ele>732</ele>
        <time>2019-02-17T09:06:26.027Z</time>
      </trkpt>
      <trkpt lat="45.06526" lon="6.04011">
        <ele>743</ele>
        <time>2019-02-17T09:06:26.422Z</time>
      </trkpt>
      <trkpt lat="45.0665" lon="6.03963">
        <ele>740</ele>
        <time>2019-02-17T09:06:28.481Z</time>
      </trkpt>
      <trkpt lat="45.06775" lon="6.03942">
        <ele>765</ele>
        <time>2019-02-17T09:06:30.507Z</time>
      </trkpt>
      <trkpt lat="45.06817" lon="6.03925">
        <ele>765</ele>
        <time>2019-02-17T09:06:31.207Z</time>
      </trkpt>
      <trkpt lat="45.06892" lon="6.03925">
        <ele>783</ele>
        <time>2019-02-17T09:06:32.402Z</time>
      </trkpt>
      <trkpt lat="45.07025" lon="6.0387">
        <ele>792</ele>
        <time>2019-02-17T09:06:34.625Z</time>
      </trkpt>
      <trkpt lat="45.07053" lon="6.0387">
        <ele>794</ele>
        <time>2019-02-17T09:06:35.072Z</time>
      </trkpt>
      <trkpt lat="45.07185" lon="6.03905">
        <ele>816</ele>
        <time>2019-02-17T09:06:37.233Z</time>
      </trkpt>
      <trkpt lat="45.07186" lon="6.03921">
        <ele>840</ele>
        <time>2019-02-17T09:06:37.410Z</time>
      </trkpt>
      <trkpt lat="45.07179" lon="6.03929">
        <ele>840</ele>
        <time>2019-02-17T09:06:37.565Z</time>
      </trkpt>
      <trkpt lat="45.07105" lon="6.03912">
        <ele>814</ele>
        <time>2019-02-17T09:06:38.759Z</time>
      </trkpt>
      <trkpt lat="45.07062" lon="6.03927">
        <ele>830</ele>
        <time>2019-02-17T09:06:39.475Z</time>
      </trkpt>
      <trkpt lat="45.07013" lon="6.03964">
        <ele>834</ele>
        <time>2019-02-17T09:06:40.355Z</time>
      </trkpt>
      <trkpt lat="45.06923" lon="6.04083">
        <ele>855</ele>
        <time>2019-02-17T09:06:42.338Z</time>
      </trkpt>
      <trkpt lat="45.06806" lon="6.04113">
        <ele>858</ele>
        <time>2019-02-17T09:06:44.236Z</time>
      </trkpt>
      <trkpt lat="45.06644" lon="6.04206">
        <ele>870</ele>
        <time>2019-02-17T09:06:47.043Z</time>
      </trkpt>
      <trkpt lat="45.06641" lon="6.0422">
        <ele>874</ele>
        <time>2019-02-17T09:06:47.215Z</time>
      </trkpt>
      <trkpt lat="45.06649" lon="6.04227">
        <ele>878</ele>
        <time>2019-02-17T09:06:47.363Z</time>
      </trkpt>
      <trkpt lat="45.06758" lon="6.04175">
        <ele>888</ele>
        <time>2019-02-17T09:06:49.214Z</time>
      </trkpt>
      <trkpt lat="45.06795" lon="6.04186">
        <ele>902</ele>
        <time>2019-02-17T09:06:49.821Z</time>
      </trkpt>
      <trkpt lat="45.06801" lon="6.04202">
        <ele>908</ele>
        <time>2019-02-17T09:06:50.026Z</time>
      </trkpt>
      <trkpt lat="45.06789" lon="6.04209">
        <ele>909</ele>
        <time>2019-02-17T09:06:50.231Z</time>
      </trkpt>
      <trkpt lat="45.06766" lon="6.04192">
        <ele>900</ele>
        <time>2019-02-17T09:06:50.646Z</time>
      </trkpt>
      <trkpt lat="45.06747" lon="6.04195">
        <ele>889</ele>
        <time>2019-02-17T09:06:50.957Z</time>
      </trkpt>
      <trkpt lat="45.06678" lon="6.04266">
        <ele>920</ele>
        <time>2019-02-17T09:06:52.319Z</time>
      </trkpt>
      <trkpt lat="45.06598" lon="6.0431">
        <ele>891</ele>
        <time>2019-02-17T09:06:53.694Z</time>
      </trkpt>
      <trkpt lat="45.06592" lon="6.04324">
        <ele>887</ele>
        <time>2019-02-17T09:06:53.883Z</time>
      </trkpt>
      <trkpt lat="45.06598" lon="6.04334">
        <ele>897</ele>
        <time>2019-02-17T09:06:54.028Z</time>
      </trkpt>
      <trkpt lat="45.06679" lon="6.0431">
        <ele>933</ele>
        <time>2019-02-17T09:06:55.355Z</time>
      </trkpt>
      <trkpt lat="45.06717" lon="6.04282">
        <ele>932</ele>
        <time>2019-02-17T09:06:56.040Z</time>
      </trkpt>
      <trkpt lat="45.06759" lon="6.04282">
        <ele>949</ele>
        <time>2019-02-17T09:06:56.702Z</time>
      </trkpt>
      <trkpt lat="45.06804" lon="6.04263">
        <ele>953</ele>
        <time>2019-02-17T09:06:57.455Z</time>
      </trkpt>
      <trkpt lat="45.0688" lon="6.04266">
        <ele>977</ele>
        <time>2019-02-17T09:06:58.677Z</time>
      </trkpt>
      <trkpt lat="45.0689" lon="6.04273">
        <ele>979</ele>
        <time>2019-02-17T09:06:58.858Z</time>
      </trkpt>
      <trkpt lat="45.06889" lon="6.04283">
        <ele>982</ele>
        <time>2019-02-17T09:06:58.981Z</time>
      </trkpt>
      <trkpt lat="45.06882" lon="6.04289">
        <ele>983</ele>
        <time>2019-02-17T09:06:59.111Z</time>
      </trkpt>
      <trkpt lat="45.06848" lon="6.0428">
        <ele>975</ele>
        <time>2019-02-17T09:06:59.663Z</time>
      </trkpt>
      <trkpt lat="45.06822" lon="6.04285">
        <ele>960</ele>
        <time>2019-02-17T09:07:00.079Z</time>
      </trkpt>
      <trkpt lat="45.06732" lon="6.0436">
        <ele>962</ele>
        <time>2019-02-17T09:07:01.760Z</time>
      </trkpt>
      <trkpt lat="45.06718" lon="6.04384">
        <ele>962</ele>
        <time>2019-02-17T09:07:02.113Z</time>
      </trkpt>
      <trkpt lat="45.06732" lon="6.04411">
        <ele>969</ele>
        <time>2019-02-17T09:07:02.495Z</time>
      </trkpt>
      <trkpt lat="45.06732" lon="6.04411">
        <ele>969</ele>
        <time>2019-02-17T09:07:02.495Z</time>
      </trkpt>
      <trkpt lat="45.06791" lon="6.04461">
        <ele>981</ele>
        <time>2019-02-17T09:07:03.592Z</time>
      </trkpt>
      <trkpt lat="45.06883" lon="6.04491">
        <ele>997</ele>
        <time>2019-02-17T09:07:05.100Z</time>
      </trkpt>
      <trkpt lat="45.06926" lon="6.04545">
        <ele>996</ele>
        <time>2019-02-17T09:07:06.028Z</time>
      </trkpt>
      <trkpt lat="45.06998" lon="6.04586">
        <ele>999</ele>
        <time>2019-02-17T09:07:07.280Z</time>
      </trkpt>
      <trkpt lat="45.07018" lon="6.0461">
        <ele>1006</ele>
        <time>2019-02-17T09:07:07.696Z</time>
      </trkpt>
      <trkpt lat="45.07085" lon="6.04692">
        <ele>1027</ele>
        <time>2019-02-17T09:07:09.114Z</time>
      </trkpt>
      <trkpt lat="45.07133" lon="6.04722">
        <ele>1032</ele>
        <time>2019-02-17T09:07:09.957Z</time>
      </trkpt>
      <trkpt lat="45.07287" lon="6.04788">
        <ele>1075</ele>
        <time>2019-02-17T09:07:12.537Z</time>
      </trkpt>
      <trkpt lat="45.07327" lon="6.04785">
        <ele>1082</ele>
        <time>2019-02-17T09:07:13.174Z</time>
      </trkpt>
      <trkpt lat="45.07343" lon="6.04793">
        <ele>1101</ele>
        <time>2019-02-17T09:07:13.456Z</time>
      </trkpt>
      <trkpt lat="45.07349" lon="6.04783">
        <ele>1103</ele>
        <time>2019-02-17T09:07:13.595Z</time>
      </trkpt>
      <trkpt lat="45.07368" lon="6.04851">
        <ele>1100</ele>
        <time>2019-02-17T09:07:14.420Z</time>
      </trkpt>
      <trkpt lat="45.07366" lon="6.04878">
        <ele>1101</ele>
        <time>2019-02-17T09:07:14.731Z</time>
      </trkpt>
      <trkpt lat="45.07339" lon="6.0492">
        <ele>1097</ele>
        <time>2019-02-17T09:07:15.377Z</time>
      </trkpt>
      <trkpt lat="45.07316" lon="6.04993">
        <ele>1099</ele>
        <time>2019-02-17T09:07:16.276Z</time>
      </trkpt>
      <trkpt lat="45.07244" lon="6.05108">
        <ele>1094</ele>
        <time>2019-02-17T09:07:18.018Z</time>
      </trkpt>
      <trkpt lat="45.07248" lon="6.05125">
        <ele>1096</ele>
        <time>2019-02-17T09:07:18.221Z</time>
      </trkpt>
      <trkpt lat="45.07258" lon="6.05125">
        <ele>1131</ele>
        <time>2019-02-17T09:07:18.376Z</time>
      </trkpt>
      <trkpt lat="45.07288" lon="6.05076">
        <ele>1115</ele>
        <time>2019-02-17T09:07:19.110Z</time>
      </trkpt>
      <trkpt lat="45.07367" lon="6.0501">
        <ele>1143</ele>
        <time>2019-02-17T09:07:20.586Z</time>
      </trkpt>
      <trkpt lat="45.07396" lon="6.04969">
        <ele>1126</ele>
        <time>2019-02-17T09:07:21.239Z</time>
      </trkpt>
      <trkpt lat="45.07455" lon="6.04955">
        <ele>1153</ele>
        <time>2019-02-17T09:07:22.207Z</time>
      </trkpt>
      <trkpt lat="45.07476" lon="6.04937">
        <ele>1155</ele>
        <time>2019-02-17T09:07:22.601Z</time>
      </trkpt>
      <trkpt lat="45.07502" lon="6.0486">
        <ele>1171</ele>
        <time>2019-02-17T09:07:23.568Z</time>
      </trkpt>
      <trkpt lat="45.07499" lon="6.04838">
        <ele>1155</ele>
        <time>2019-02-17T09:07:23.821Z</time>
      </trkpt>
      <trkpt lat="45.07476" lon="6.04778">
        <ele>1147</ele>
        <time>2019-02-17T09:07:24.590Z</time>
      </trkpt>
      <trkpt lat="45.07482" lon="6.04762">
        <ele>1150</ele>
        <time>2019-02-17T09:07:24.791Z</time>
      </trkpt>
      <trkpt lat="45.07493" lon="6.04769">
        <ele>1152</ele>
        <time>2019-02-17T09:07:24.991Z</time>
      </trkpt>
      <trkpt lat="45.07498" lon="6.04801">
        <ele>1149</ele>
        <time>2019-02-17T09:07:25.359Z</time>
      </trkpt>
      <trkpt lat="45.07521" lon="6.04859">
        <ele>1175</ele>
        <time>2019-02-17T09:07:26.108Z</time>
      </trkpt>
      <trkpt lat="45.07524" lon="6.04949">
        <ele>1187</ele>
        <time>2019-02-17T09:07:27.124Z</time>
      </trkpt>
      <trkpt lat="45.0752" lon="6.04973">
        <ele>1190</ele>
        <time>2019-02-17T09:07:27.410Z</time>
      </trkpt>
      <trkpt lat="45.07509" lon="6.04996">
        <ele>1187</ele>
        <time>2019-02-17T09:07:27.728Z</time>
      </trkpt>
      <trkpt lat="45.07446" lon="6.05029">
        <ele>1180</ele>
        <time>2019-02-17T09:07:28.808Z</time>
      </trkpt>
      <trkpt lat="45.07418" lon="6.05084">
        <ele>1189</ele>
        <time>2019-02-17T09:07:29.577Z</time>
      </trkpt>
      <trkpt lat="45.07359" lon="6.05164">
        <ele>1187</ele>
        <time>2019-02-17T09:07:30.886Z</time>
      </trkpt>
      <trkpt lat="45.07322" lon="6.05198">
        <ele>1174</ele>
        <time>2019-02-17T09:07:31.592Z</time>
      </trkpt>
      <trkpt lat="45.07321" lon="6.05214">
        <ele>1176</ele>
        <time>2019-02-17T09:07:31.769Z</time>
      </trkpt>
      <trkpt lat="45.07328" lon="6.05219">
        <ele>1180</ele>
        <time>2019-02-17T09:07:31.904Z</time>
      </trkpt>
      <trkpt lat="45.07382" lon="6.05159">
        <ele>1195</ele>
        <time>2019-02-17T09:07:33.000Z</time>
      </trkpt>
      <trkpt lat="45.07451" lon="6.05096">
        <ele>1215</ele>
        <time>2019-02-17T09:07:34.317Z</time>
      </trkpt>
      <trkpt lat="45.07539" lon="6.05064">
        <ele>1223</ele>
        <time>2019-02-17T09:07:35.765Z</time>
      </trkpt>
      <trkpt lat="45.07584" lon="6.05027">
        <ele>1246</ele>
        <time>2019-02-17T09:07:36.608Z</time>
      </trkpt>
      <trkpt lat="45.07637" lon="6.04888">
        <ele>1233</ele>
        <time>2019-02-17T09:07:38.397Z</time>
      </trkpt>
      <trkpt lat="45.07628" lon="6.04796">
        <ele>1230</ele>
        <time>2019-02-17T09:07:39.452Z</time>
      </trkpt>
      <trkpt lat="45.07649" lon="6.04732">
        <ele>1242</ele>
        <time>2019-02-17T09:07:40.243Z</time>
      </trkpt>
      <trkpt lat="45.0766" lon="6.04728">
        <ele>1244</ele>
        <time>2019-02-17T09:07:40.430Z</time>
      </trkpt>
      <trkpt lat="45.07667" lon="6.04743">
        <ele>1260</ele>
        <time>2019-02-17T09:07:40.629Z</time>
      </trkpt>
      <trkpt lat="45.07648" lon="6.04796">
        <ele>1235</ele>
        <time>2019-02-17T09:07:41.305Z</time>
      </trkpt>
      <trkpt lat="45.0767" lon="6.04866">
        <ele>1273</ele>
        <time>2019-02-17T09:07:42.173Z</time>
      </trkpt>
      <trkpt lat="45.07671" lon="6.04947">
        <ele>1276</ele>
        <time>2019-02-17T09:07:43.090Z</time>
      </trkpt>
      <trkpt lat="45.07654" lon="6.05002">
        <ele>1264</ele>
        <time>2019-02-17T09:07:43.773Z</time>
      </trkpt>
      <trkpt lat="45.07644" lon="6.05081">
        <ele>1271</ele>
        <time>2019-02-17T09:07:44.681Z</time>
      </trkpt>
      <trkpt lat="45.07597" lon="6.05156">
        <ele>1284</ele>
        <time>2019-02-17T09:07:45.819Z</time>
      </trkpt>
      <trkpt lat="45.07523" lon="6.05208">
        <ele>1293</ele>
        <time>2019-02-17T09:07:47.144Z</time>
      </trkpt>
      <trkpt lat="45.07482" lon="6.05224">
        <ele>1279</ele>
        <time>2019-02-17T09:07:47.813Z</time>
      </trkpt>
      <trkpt lat="45.07477" lon="6.05244">
        <ele>1285</ele>
        <time>2019-02-17T09:07:48.056Z</time>
      </trkpt>
      <trkpt lat="45.07489" lon="6.0525">
        <ele>1296</ele>
        <time>2019-02-17T09:07:48.255Z</time>
      </trkpt>
      <trkpt lat="45.07517" lon="6.05225">
        <ele>1299</ele>
        <time>2019-02-17T09:07:48.772Z</time>
      </trkpt>
      <trkpt lat="45.07576" lon="6.05199">
        <ele>1296</ele>
        <time>2019-02-17T09:07:49.774Z</time>
      </trkpt>
      <trkpt lat="45.07664" lon="6.05174">
        <ele>1315</ele>
        <time>2019-02-17T09:07:51.211Z</time>
      </trkpt>
      <trkpt lat="45.07693" lon="6.05149">
        <ele>1323</ele>
        <time>2019-02-17T09:07:51.749Z</time>
      </trkpt>
      <trkpt lat="45.07803" lon="6.04952">
        <ele>1340</ele>
        <time>2019-02-17T09:07:54.596Z</time>
      </trkpt>
      <trkpt lat="45.07806" lon="6.04931">
        <ele>1342</ele>
        <time>2019-02-17T09:07:54.844Z</time>
      </trkpt>
      <trkpt lat="45.07794" lon="6.04891">
        <ele>1338</ele>
        <time>2019-02-17T09:07:55.335Z</time>
      </trkpt>
      <trkpt lat="45.07794" lon="6.04845">
        <ele>1341</ele>
        <time>2019-02-17T09:07:55.863Z</time>
      </trkpt>
      <trkpt lat="45.07781" lon="6.0479">
        <ele>1340</ele>
        <time>2019-02-17T09:07:56.513Z</time>
      </trkpt>
      <trkpt lat="45.07784" lon="6.04781">
        <ele>1341</ele>
        <time>2019-02-17T09:07:56.634Z</time>
      </trkpt>
      <trkpt lat="45.07792" lon="6.04781">
        <ele>1344</ele>
        <time>2019-02-17T09:07:56.763Z</time>
      </trkpt>
      <trkpt lat="45.07811" lon="6.04851">
        <ele>1348</ele>
        <time>2019-02-17T09:07:57.614Z</time>
      </trkpt>
      <trkpt lat="45.07843" lon="6.04926">
        <ele>1369</ele>
        <time>2019-02-17T09:07:58.599Z</time>
      </trkpt>
      <trkpt lat="45.0784" lon="6.05005">
        <ele>1373</ele>
        <time>2019-02-17T09:07:59.499Z</time>
      </trkpt>
      <trkpt lat="45.07783" lon="6.05171">
        <ele>1382</ele>
        <time>2019-02-17T09:08:01.585Z</time>
      </trkpt>
      <trkpt lat="45.07771" lon="6.05224">
        <ele>1387</ele>
        <time>2019-02-17T09:08:02.218Z</time>
      </trkpt>
      <trkpt lat="45.07747" lon="6.05273">
        <ele>1378</ele>
        <time>2019-02-17T09:08:02.898Z</time>
      </trkpt>
      <trkpt lat="45.07708" lon="6.05317">
        <ele>1374</ele>
        <time>2019-02-17T09:08:03.693Z</time>
      </trkpt>
      <trkpt lat="45.07707" lon="6.05338">
        <ele>1374</ele>
        <time>2019-02-17T09:08:03.930Z</time>
      </trkpt>
      <trkpt lat="45.07717" lon="6.05352">
        <ele>1376</ele>
        <time>2019-02-17T09:08:04.151Z</time>
      </trkpt>
      <trkpt lat="45.07767" lon="6.05365">
        <ele>1396</ele>
        <time>2019-02-17T09:08:04.974Z</time>
      </trkpt>
      <trkpt lat="45.07811" lon="6.05403">
        <ele>1400</ele>
        <time>2019-02-17T09:08:05.790Z</time>
      </trkpt>
      <trkpt lat="45.07917" lon="6.05466">
        <ele>1418</ele>
        <time>2019-02-17T09:08:07.645Z</time>
      </trkpt>
      <trkpt lat="45.07974" lon="6.05463">
        <ele>1424</ele>
        <time>2019-02-17T09:08:08.557Z</time>
      </trkpt>
      <trkpt lat="45.08054" lon="6.05484">
        <ele>1435</ele>
        <time>2019-02-17T09:08:09.860Z</time>
      </trkpt>
      <trkpt lat="45.08069" lon="6.05494">
        <ele>1435</ele>
        <time>2019-02-17T09:08:10.117Z</time>
      </trkpt>
      <trkpt lat="45.0808" lon="6.05518">
        <ele>1434</ele>
        <time>2019-02-17T09:08:10.449Z</time>
      </trkpt>
      <trkpt lat="45.08079" lon="6.05544">
        <ele>1436</ele>
        <time>2019-02-17T09:08:10.747Z</time>
      </trkpt>
      <trkpt lat="45.08068" lon="6.05558">
        <ele>1437</ele>
        <time>2019-02-17T09:08:10.983Z</time>
      </trkpt>
      <trkpt lat="45.08025" lon="6.0558">
        <ele>1431</ele>
        <time>2019-02-17T09:08:11.725Z</time>
      </trkpt>
      <trkpt lat="45.0801" lon="6.05623">
        <ele>1438</ele>
        <time>2019-02-17T09:08:12.273Z</time>
      </trkpt>
      <trkpt lat="45.08004" lon="6.05662">
        <ele>1435</ele>
        <time>2019-02-17T09:08:12.713Z</time>
      </trkpt>
      <trkpt lat="45.08007" lon="6.05689">
        <ele>1441</ele>
        <time>2019-02-17T09:08:13.033Z</time>
      </trkpt>
      <trkpt lat="45.08063" lon="6.05828">
        <ele>1446</ele>
        <time>2019-02-17T09:08:14.838Z</time>
      </trkpt>
      <trkpt lat="45.08063" lon="6.05828">
        <ele>1446</ele>
        <time>2019-02-17T09:08:14.838Z</time>
      </trkpt>
      <trkpt lat="45.08088" lon="6.05879">
        <ele>1461</ele>
        <time>2019-02-17T09:08:15.542Z</time>
      </trkpt>
      <trkpt lat="45.0809" lon="6.05882">
        <ele>1461</ele>
        <time>2019-02-17T09:08:15.584Z</time>
      </trkpt>
      <trkpt lat="45.08108" lon="6.05909">
        <ele>1461</ele>
        <time>2019-02-17T09:08:16.010Z</time>
      </trkpt>
      <trkpt lat="45.08122" lon="6.05951">
        <ele>1461</ele>
        <time>2019-02-17T09:08:16.534Z</time>
      </trkpt>
      <trkpt lat="45.08128" lon="6.05966">
        <ele>1462</ele>
        <time>2019-02-17T09:08:16.730Z</time>
      </trkpt>
      <trkpt lat="45.08142" lon="6.05989">
        <ele>1466</ele>
        <time>2019-02-17T09:08:17.069Z</time>
      </trkpt>
      <trkpt lat="45.08191" lon="6.06148">
        <ele>1479</ele>
        <time>2019-02-17T09:08:19.038Z</time>
      </trkpt>
      <trkpt lat="45.08191" lon="6.06148">
        <ele>1479</ele>
        <time>2019-02-17T09:08:19.038Z</time>
      </trkpt>
      <trkpt lat="45.08217" lon="6.0623">
        <ele>1475</ele>
        <time>2019-02-17T09:08:20.053Z</time>
      </trkpt>
      <trkpt lat="45.08227" lon="6.06232">
        <ele>1478</ele>
        <time>2019-02-17T09:08:20.219Z</time>
      </trkpt>
      <trkpt lat="45.08235" lon="6.06221">
        <ele>1480</ele>
        <time>2019-02-17T09:08:20.399Z</time>
      </trkpt>
      <trkpt lat="45.08213" lon="6.06175">
        <ele>1478</ele>
        <time>2019-02-17T09:08:21.014Z</time>
      </trkpt>
      <trkpt lat="45.08209" lon="6.06154">
        <ele>1485</ele>
        <time>2019-02-17T09:08:21.266Z</time>
      </trkpt>
      <trkpt lat="45.0822" lon="6.05975">
        <ele>1498</ele>
        <time>2019-02-17T09:08:23.295Z</time>
      </trkpt>
      <trkpt lat="45.08223" lon="6.05845">
        <ele>1501</ele>
        <time>2019-02-17T09:08:24.771Z</time>
      </trkpt>
      <trkpt lat="45.08223" lon="6.05845">
        <ele>1501</ele>
        <time>2019-02-17T09:08:24.771Z</time>
      </trkpt>
      <trkpt lat="45.08224" lon="6.05821">
        <ele>1500</ele>
        <time>2019-02-17T09:08:25.039Z</time>
      </trkpt>
      <trkpt lat="45.08231" lon="6.0579">
        <ele>1498</ele>
        <time>2019-02-17T09:08:25.414Z</time>
      </trkpt>
      <trkpt lat="45.08231" lon="6.0579">
        <ele>1498</ele>
        <time>2019-02-17T09:08:25.414Z</time>
      </trkpt>
      <trkpt lat="45.0826" lon="6.05763">
        <ele>1505</ele>
        <time>2019-02-17T09:08:25.962Z</time>
      </trkpt>
      <trkpt lat="45.08358" lon="6.05748">
        <ele>1511</ele>
        <time>2019-02-17T09:08:27.553Z</time>
      </trkpt>
      <trkpt lat="45.08367" lon="6.05754">
        <ele>1519</ele>
        <time>2019-02-17T09:08:27.711Z</time>
      </trkpt>
      <trkpt lat="45.08364" lon="6.05771">
        <ele>1520</ele>
        <time>2019-02-17T09:08:27.914Z</time>
      </trkpt>
      <trkpt lat="45.08339" lon="6.05791">
        <ele>1521</ele>
        <time>2019-02-17T09:08:28.372Z</time>
      </trkpt>
      <trkpt lat="45.08321" lon="6.05818">
        <ele>1516</ele>
        <time>2019-02-17T09:08:28.788Z</time>
      </trkpt>
      <trkpt lat="45.08302" lon="6.05884">
        <ele>1522</ele>
        <time>2019-02-17T09:08:29.597Z</time>
      </trkpt>
      <trkpt lat="45.08302" lon="6.05884">
        <ele>1522</ele>
        <time>2019-02-17T09:08:29.597Z</time>
      </trkpt>
      <trkpt lat="45.08308" lon="6.06016">
        <ele>1534</ele>
        <time>2019-02-17T09:08:31.094Z</time>
      </trkpt>
      <trkpt lat="45.08346" lon="6.06193">
        <ele>1558</ele>
        <time>2019-02-17T09:08:33.186Z</time>
      </trkpt>
      <trkpt lat="45.08349" lon="6.06253">
        <ele>1554</ele>
        <time>2019-02-17T09:08:33.861Z</time>
      </trkpt>
      <trkpt lat="45.08359" lon="6.06263">
        <ele>1560</ele>
        <time>2019-02-17T09:08:34.072Z</time>
      </trkpt>
      <trkpt lat="45.08366" lon="6.06251">
        <ele>1562</ele>
        <time>2019-02-17T09:08:34.246Z</time>
      </trkpt>
      <trkpt lat="45.08359" lon="6.06186">
        <ele>1561</ele>
        <time>2019-02-17T09:08:34.989Z</time>
      </trkpt>
      <trkpt lat="45.08361" lon="6.06147">
        <ele>1561</ele>
        <time>2019-02-17T09:08:35.440Z</time>
      </trkpt>
      <trkpt lat="45.08403" lon="6.06049">
        <ele>1563</ele>
        <time>2019-02-17T09:08:36.733Z</time>
      </trkpt>
      <trkpt lat="45.08425" lon="6.0603">
        <ele>1575</ele>
        <time>2019-02-17T09:08:37.148Z</time>
      </trkpt>
      <trkpt lat="45.08456" lon="6.06018">
        <ele>1578</ele>
        <time>2019-02-17T09:08:37.663Z</time>
      </trkpt>
      <trkpt lat="45.08456" lon="6.06018">
        <ele>1578</ele>
        <time>2019-02-17T09:08:37.663Z</time>
      </trkpt>
      <trkpt lat="45.08506" lon="6.06002">
        <ele>1585</ele>
        <time>2019-02-17T09:08:38.483Z</time>
      </trkpt>
      <trkpt lat="45.08554" lon="6.05982">
        <ele>1588</ele>
        <time>2019-02-17T09:08:39.289Z</time>
      </trkpt>
      <trkpt lat="45.08554" lon="6.05982">
        <ele>1588</ele>
        <time>2019-02-17T09:08:39.290Z</time>
      </trkpt>
      <trkpt lat="45.08644" lon="6.05892">
        <ele>1594</ele>
        <time>2019-02-17T09:08:41.059Z</time>
      </trkpt>
      <trkpt lat="45.08662" lon="6.05876">
        <ele>1593</ele>
        <time>2019-02-17T09:08:41.400Z</time>
      </trkpt>
      <trkpt lat="45.08749" lon="6.0581">
        <ele>1606</ele>
        <time>2019-02-17T09:08:42.978Z</time>
      </trkpt>
      <trkpt lat="45.0876" lon="6.05793">
        <ele>1617</ele>
        <time>2019-02-17T09:08:43.243Z</time>
      </trkpt>
      <trkpt lat="45.08818" lon="6.05704">
        <ele>1620</ele>
        <time>2019-02-17T09:08:44.614Z</time>
      </trkpt>
      <trkpt lat="45.08834" lon="6.05666">
        <ele>1627</ele>
        <time>2019-02-17T09:08:45.112Z</time>
      </trkpt>
      <trkpt lat="45.08833" lon="6.05634">
        <ele>1625</ele>
        <time>2019-02-17T09:08:45.471Z</time>
      </trkpt>
      <trkpt lat="45.08812" lon="6.05598">
        <ele>1627</ele>
        <time>2019-02-17T09:08:45.998Z</time>
      </trkpt>
      <trkpt lat="45.08813" lon="6.05584">
        <ele>1628</ele>
        <time>2019-02-17T09:08:46.157Z</time>
      </trkpt>
      <trkpt lat="45.0889" lon="6.05635">
        <ele>1642</ele>
        <time>2019-02-17T09:08:47.515Z</time>
      </trkpt>
      <trkpt lat="45.089" lon="6.05648">
        <ele>1643</ele>
        <time>2019-02-17T09:08:47.732Z</time>
      </trkpt>
      <trkpt lat="45.08913" lon="6.05709">
        <ele>1641</ele>
        <time>2019-02-17T09:08:48.457Z</time>
      </trkpt>
      <trkpt lat="45.08916" lon="6.05808">
        <ele>1647</ele>
        <time>2019-02-17T09:08:49.575Z</time>
      </trkpt>
      <trkpt lat="45.08886" lon="6.05988">
        <ele>1663</ele>
        <time>2019-02-17T09:08:51.667Z</time>
      </trkpt>
      <trkpt lat="45.08868" lon="6.06034">
        <ele>1670</ele>
        <time>2019-02-17T09:08:52.261Z</time>
      </trkpt>
      <trkpt lat="45.08868" lon="6.06046">
        <ele>1671</ele>
        <time>2019-02-17T09:08:52.395Z</time>
      </trkpt>
      <trkpt lat="45.08875" lon="6.06048">
        <ele>1673</ele>
        <time>2019-02-17T09:08:52.509Z</time>
      </trkpt>
      <trkpt lat="45.08973" lon="6.05948">
        <ele>1685</ele>
        <time>2019-02-17T09:08:54.432Z</time>
      </trkpt>
      <trkpt lat="45.09045" lon="6.05846">
        <ele>1695</ele>
        <time>2019-02-17T09:08:56.075Z</time>
      </trkpt>
      <trkpt lat="45.09121" lon="6.05708">
        <ele>1708</ele>
        <time>2019-02-17T09:08:58.051Z</time>
      </trkpt>
      <trkpt lat="45.09139" lon="6.05647">
        <ele>1712</ele>
        <time>2019-02-17T09:08:58.805Z</time>
      </trkpt>
      <trkpt lat="45.09136" lon="6.05549">
        <ele>1718</ele>
        <time>2019-02-17T09:08:59.905Z</time>
      </trkpt>
      <trkpt lat="45.09139" lon="6.05536">
        <ele>1719</ele>
        <time>2019-02-17T09:09:00.068Z</time>
      </trkpt>
      <trkpt lat="45.09148" lon="6.05539">
        <ele>1720</ele>
        <time>2019-02-17T09:09:00.217Z</time>
      </trkpt>
      <trkpt lat="45.09155" lon="6.05554">
        <ele>1720</ele>
        <time>2019-02-17T09:09:00.426Z</time>
      </trkpt>
      <trkpt lat="45.09158" lon="6.05598">
        <ele>1717</ele>
        <time>2019-02-17T09:09:00.920Z</time>
      </trkpt>
      <trkpt lat="45.0918" lon="6.05684">
        <ele>1732</ele>
        <time>2019-02-17T09:09:01.953Z</time>
      </trkpt>
      <trkpt lat="45.09184" lon="6.05721">
        <ele>1734</ele>
        <time>2019-02-17T09:09:02.378Z</time>
      </trkpt>
      <trkpt lat="45.09177" lon="6.05857">
        <ele>1745</ele>
        <time>2019-02-17T09:09:03.931Z</time>
      </trkpt>
      <trkpt lat="45.09164" lon="6.05943">
        <ele>1739</ele>
        <time>2019-02-17T09:09:04.924Z</time>
      </trkpt>
      <trkpt lat="45.09127" lon="6.06117">
        <ele>1757</ele>
        <time>2019-02-17T09:09:06.979Z</time>
      </trkpt>
      <trkpt lat="45.09124" lon="6.06135">
        <ele>1758</ele>
        <time>2019-02-17T09:09:07.186Z</time>
      </trkpt>
      <trkpt lat="45.09101" lon="6.06196">
        <ele>1766</ele>
        <time>2019-02-17T09:09:07.976Z</time>
      </trkpt>
      <trkpt lat="45.09086" lon="6.06265">
        <ele>1773</ele>
        <time>2019-02-17T09:09:08.784Z</time>
      </trkpt>
      <trkpt lat="45.09086" lon="6.06265">
        <ele>1773</ele>
        <time>2019-02-17T09:09:08.784Z</time>
      </trkpt>
      <trkpt lat="45.09076" lon="6.06306">
        <ele>1768</ele>
        <time>2019-02-17T09:09:09.279Z</time>
      </trkpt>
      <trkpt lat="45.09065" lon="6.06398">
        <ele>1778</ele>
        <time>2019-02-17T09:09:10.336Z</time>
      </trkpt>
      <trkpt lat="45.0905" lon="6.06454">
        <ele>1780</ele>
        <time>2019-02-17T09:09:11.015Z</time>
      </trkpt>
      <trkpt lat="45.09047" lon="6.06481">
        <ele>1780</ele>
        <time>2019-02-17T09:09:11.328Z</time>
      </trkpt>
      <trkpt lat="45.09044" lon="6.06512">
        <ele>1784</ele>
        <time>2019-02-17T09:09:11.678Z</time>
      </trkpt>
      <trkpt lat="45.09049" lon="6.06535">
        <ele>1785</ele>
        <time>2019-02-17T09:09:11.959Z</time>
      </trkpt>
      <trkpt lat="45.09056" lon="6.06543">
        <ele>1785</ele>
        <time>2019-02-17T09:09:12.103Z</time>
      </trkpt>
      <trkpt lat="45.09081" lon="6.06548">
        <ele>1787</ele>
        <time>2019-02-17T09:09:12.502Z</time>
      </trkpt>
      <trkpt lat="45.09093" lon="6.06542">
        <ele>1794</ele>
        <time>2019-02-17T09:09:12.703Z</time>
      </trkpt>
      <trkpt lat="45.09099" lon="6.06509">
        <ele>1791</ele>
        <time>2019-02-17T09:09:13.093Z</time>
      </trkpt>
      <trkpt lat="45.0911" lon="6.06439">
        <ele>1791</ele>
        <time>2019-02-17T09:09:13.901Z</time>
      </trkpt>
      <trkpt lat="45.09111" lon="6.06435">
        <ele>1791</ele>
        <time>2019-02-17T09:09:13.952Z</time>
      </trkpt>
      <trkpt lat="45.09111" lon="6.06435">
        <ele>1791</ele>
        <time>2019-02-17T09:09:13.952Z</time>
      </trkpt>
      <trkpt lat="45.09126" lon="6.06392">
        <ele>1789</ele>
        <time>2019-02-17T09:09:14.494Z</time>
      </trkpt>
      <trkpt lat="45.09182" lon="6.06305">
        <ele>1796</ele>
        <time>2019-02-17T09:09:15.829Z</time>
      </trkpt>
      <trkpt lat="45.09192" lon="6.06324">
        <ele>1797</ele>
        <time>2019-02-17T09:09:16.097Z</time>
      </trkpt>
      <trkpt lat="45.0919" lon="6.06428">
        <ele>1806</ele>
        <time>2019-02-17T09:09:17.279Z</time>
      </trkpt>
      <trkpt lat="45.0919" lon="6.06428">
        <ele>1806</ele>
        <time>2019-02-17T09:09:17.279Z</time>
      </trkpt>
      <trkpt lat="45.09189" lon="6.06474">
        <ele>1806</ele>
        <time>2019-02-17T09:09:17.792Z</time>
      </trkpt>
      <trkpt lat="45.09196" lon="6.06536">
        <ele>1809</ele>
        <time>2019-02-17T09:09:18.507Z</time>
      </trkpt>
      <trkpt lat="45.09196" lon="6.06536">
        <ele>1809</ele>
        <time>2019-02-17T09:09:18.507Z</time>
      </trkpt>
      <trkpt lat="45.09218" lon="6.06621">
        <ele>1814</ele>
        <time>2019-02-17T09:09:19.529Z</time>
      </trkpt>
      <trkpt lat="45.09209" lon="6.06646">
        <ele>1814</ele>
        <time>2019-02-17T09:09:19.850Z</time>
      </trkpt>
      <trkpt lat="45.09195" lon="6.06653">
        <ele>1813</ele>
        <time>2019-02-17T09:09:20.087Z</time>
      </trkpt>
      <trkpt lat="45.09106" lon="6.06653">
        <ele>1804</ele>
        <time>2019-02-17T09:09:21.523Z</time>
      </trkpt>
      <trkpt lat="45.09094" lon="6.0666">
        <ele>1805</ele>
        <time>2019-02-17T09:09:21.719Z</time>
      </trkpt>
      <trkpt lat="45.09094" lon="6.0666">
        <ele>1805</ele>
        <time>2019-02-17T09:09:21.719Z</time>
      </trkpt>
      <trkpt lat="45.09082" lon="6.06667">
        <ele>1806</ele>
        <time>2019-02-17T09:09:21.925Z</time>
      </trkpt>
      <trkpt lat="45.09055" lon="6.06704">
        <ele>1806</ele>
        <time>2019-02-17T09:09:22.527Z</time>
      </trkpt>
      <trkpt lat="45.09012" lon="6.06829">
        <ele>1811</ele>
        <time>2019-02-17T09:09:24.106Z</time>
      </trkpt>
      <trkpt lat="45.09017" lon="6.06922">
        <ele>1812</ele>
        <time>2019-02-17T09:09:25.153Z</time>
      </trkpt>
      <trkpt lat="45.09013" lon="6.06923">
        <ele>1812</ele>
        <time>2019-02-17T09:09:25.216Z</time>
      </trkpt>
      <trkpt lat="45.09008" lon="6.06932">
        <ele>1812</ele>
        <time>2019-02-17T09:09:25.346Z</time>
      </trkpt>
      <trkpt lat="45.09009" lon="6.06947">
        <ele>1812</ele>
        <time>2019-02-17T09:09:25.517Z</time>
      </trkpt>
      <trkpt lat="45.0902" lon="6.06953">
        <ele>1813</ele>
        <time>2019-02-17T09:09:25.710Z</time>
      </trkpt>
      <trkpt lat="45.09035" lon="6.0706">
        <ele>1813</ele>
        <time>2019-02-17T09:09:26.942Z</time>
      </trkpt>
      <trkpt lat="45.09035" lon="6.0706">
        <ele>1813</ele>
        <time>2019-02-17T09:09:26.942Z</time>
      </trkpt>
      <trkpt lat="45.0904" lon="6.0716">
        <ele>1811</ele>
        <time>2019-02-17T09:09:28.086Z</time>
      </trkpt>
      <trkpt lat="45.09032" lon="6.07175">
        <ele>1810</ele>
        <time>2019-02-17T09:09:28.299Z</time>
      </trkpt>
      <trkpt lat="45.09042" lon="6.07187">
        <ele>1810</ele>
        <time>2019-02-17T09:09:28.510Z</time>
      </trkpt>
      <trkpt lat="45.09038" lon="6.07291">
        <ele>1809</ele>
        <time>2019-02-17T09:09:29.686Z</time>
      </trkpt>
    </trkseg>
  </trk>
</gpx>